This is the latest recevied weather packets stored in our database for station/object KE8KMM. If no packets are shown the sender has not sent any weather packets the latest 10 day(s).
| Time | Temp. | Humidity | Pressure | Rain* | Wind** | Luminosity | Snow |
|---|---|---|---|---|---|---|---|
| 1777937121 | 20.56° C | 61% | 1004.9 hPa | 0 mm | - | 39 W/m² | - |
| 1777936818 | 20.56° C | 60% | 1005 hPa | 0 mm | - | 40 W/m² | - |
| 1777936515 | 21.11° C | 60% | 1004.9 hPa | 0 mm | - | 46 W/m² | - |
| 1777936211 | 21.11° C | 59% | 1005.3 hPa | 0 mm | - | 57 W/m² | - |
| 1777935907 | 21.67° C | 59% | 1005 hPa | 0 mm | - | 50 W/m² | - |
| 1777935606 | 21.67° C | 58% | 1005.1 hPa | 0 mm | - | 75 W/m² | - |
| 1777935303 | 22.22° C | 57% | 1005.1 hPa | 0 mm | - | 150 W/m² | - |
| 1777935000 | 21.67° C | 59% | 1005.2 hPa | 0 mm | - | 196 W/m² | - |
| 1777934696 | 21.11° C | 59% | 1005.3 hPa | 0 mm | - | 98 W/m² | - |
| 1777934393 | 21.67° C | 59% | 1005.2 hPa | 0 mm | - | 94 W/m² | - |
| 1777934090 | 21.67° C | 59% | 1004.8 hPa | 0 mm | - | 89 W/m² | - |
| 1777933785 | 21.67° C | 59% | 1005.2 hPa | 0 mm | - | 107 W/m² | - |
| 1777933483 | 22.22° C | 59% | 1005 hPa | 0 mm | - | 116 W/m² | - |
| 1777933180 | 22.22° C | 59% | 1005.1 hPa | 0 mm | - | 121 W/m² | - |
| 1777932877 | 22.78° C | 58% | 1004.9 hPa | 0 mm | - | 332 W/m² | - |
| 1777932574 | 22.22° C | 58% | 1005 hPa | 0 mm | - | 285 W/m² | - |
| 1777932271 | 21.67° C | 60% | 1004.9 hPa | 0 mm | - | 129 W/m² | - |
| 1777931968 | 21.67° C | 60% | 1004.8 hPa | 0 mm | - | 117 W/m² | - |
| 1777931665 | 21.67° C | 59% | 1005.1 hPa | 0 mm | - | 107 W/m² | - |
| 1777931361 | 22.22° C | 59% | 1005 hPa | 0 mm | - | 183 W/m² | - |
| 1777931058 | 21.67° C | 58% | 1005 hPa | 0 mm | - | 161 W/m² | - |
| 1777930755 | 21.67° C | 59% | 1005.3 hPa | 0 mm | - | 187 W/m² | - |
| 1777930450 | 21.67° C | 58% | 1005.3 hPa | 0 mm | - | 123 W/m² | - |
| 1777930148 | 21.67° C | 58% | 1005.3 hPa | 0 mm | - | 77 W/m² | - |
| 1777929844 | 22.22° C | 58% | 1005.4 hPa | 0 mm | - | 93 W/m² | - |
* Rain latest hour (hover to see other rain measurements)
** Current wind speed in m/s (hover to see current wind gust speed)